sensor_id;sensor_type;location;lat;lon;timestamp;temperature;humidity
46440;DHT22;32138;50.966;6.968;2022-11-18T00:00:08;11.70;95.60
46440;DHT22;32138;50.966;6.968;2022-11-18T00:01:14;11.70;95.80
46440;DHT22;32138;50.966;6.968;2022-11-18T00:02:16;11.80;95.90
46440;DHT22;32138;50.966;6.968;2022-11-18T00:03:17;11.80;95.50
46440;DHT22;32138;50.966;6.968;2022-11-18T00:04:18;11.80;95.30
46440;DHT22;32138;50.966;6.968;2022-11-18T00:05:18;11.80;95.40
46440;DHT22;32138;50.966;6.968;2022-11-18T00:06:25;11.80;95.40
46440;DHT22;32138;50.966;6.968;2022-11-18T00:07:27;11.80;95.90
46440;DHT22;32138;50.966;6.968;2022-11-18T00:08:28;11.80;95.40
46440;DHT22;32138;50.966;6.968;2022-11-18T00:09:28;11.80;95.50
46440;DHT22;32138;50.966;6.968;2022-11-18T00:10:29;11.90;95.70
46440;DHT22;32138;50.966;6.968;2022-11-18T00:11:30;11.80;95.40
46440;DHT22;32138;50.966;6.968;2022-11-18T00:12:49;11.80;95.70
46440;DHT22;32138;50.966;6.968;2022-11-18T00:14:22;11.60;95.80
46440;DHT22;32138;50.966;6.968;2022-11-18T00:15:26;11.70;95.70
46440;DHT22;32138;50.966;6.968;2022-11-18T00:16:27;11.70;95.60
46440;DHT22;32138;50.966;6.968;2022-11-18T00:17:27;11.90;95.70
46440;DHT22;32138;50.966;6.968;2022-11-18T00:18:28;11.80;95.40
46440;DHT22;32138;50.966;6.968;2022-11-18T00:20:34;11.80;95.30
46440;DHT22;32138;50.966;6.968;2022-11-18T00:21:35;11.70;95.70
46440;DHT22;32138;50.966;6.968;2022-11-18T00:22:35;11.70;95.70
46440;DHT22;32138;50.966;6.968;2022-11-18T00:23:37;11.80;95.60
46440;DHT22;32138;50.966;6.968;2022-11-18T00:24:38;11.70;95.40
46440;DHT22;32138;50.966;6.968;2022-11-18T00:25:39;11.70;95.60
46440;DHT22;32138;50.966;6.968;2022-11-18T00:26:39;11.70;95.50
46440;DHT22;32138;50.966;6.968;2022-11-18T00:27:40;11.70;95.50
46440;DHT22;32138;50.966;6.968;2022-11-18T00:28:41;11.80;95.80
46440;DHT22;32138;50.966;6.968;2022-11-18T00:29:42;11.80;95.70
46440;DHT22;32138;50.966;6.968;2022-11-18T00:30:42;11.80;95.30
46440;DHT22;32138;50.966;6.968;2022-11-18T00:31:43;11.80;95.40
46440;DHT22;32138;50.966;6.968;2022-11-18T00:32:44;11.70;95.50
46440;DHT22;32138;50.966;6.968;2022-11-18T00:33:45;11.70;95.50
46440;DHT22;32138;50.966;6.968;2022-11-18T00:34:46;11.60;95.60
46440;DHT22;32138;50.966;6.968;2022-11-18T00:35:53;11.70;95.70
46440;DHT22;32138;50.966;6.968;2022-11-18T00:36:57;11.60;95.70
46440;DHT22;32138;50.966;6.968;2022-11-18T00:37:57;11.70;95.70
46440;DHT22;32138;50.966;6.968;2022-11-18T00:38:58;11.70;95.70
46440;DHT22;32138;50.966;6.968;2022-11-18T00:39:59;11.80;95.50
46440;DHT22;32138;50.966;6.968;2022-11-18T00:41:07;11.80;95.60
46440;DHT22;32138;50.966;6.968;2022-11-18T00:42:09;11.80;95.50
46440;DHT22;32138;50.966;6.968;2022-11-18T00:43:29;11.80;95.60
46440;DHT22;32138;50.966;6.968;2022-11-18T00:44:30;11.80;95.60
46440;DHT22;32138;50.966;6.968;2022-11-18T00:45:31;11.80;95.60
46440;DHT22;32138;50.966;6.968;2022-11-18T00:46:32;11.80;95.60
46440;DHT22;32138;50.966;6.968;2022-11-18T00:47:32;11.90;95.50
46440;DHT22;32138;50.966;6.968;2022-11-18T00:48:33;12.00;95.50
46440;DHT22;32138;50.966;6.968;2022-11-18T00:49:34;12.00;95.40
46440;DHT22;32138;50.966;6.968;2022-11-18T00:50:35;12.00;95.30
46440;DHT22;32138;50.966;6.968;2022-11-18T00:51:36;12.00;95.60
46440;DHT22;32138;50.966;6.968;2022-11-18T00:52:37;12.00;95.80
46440;DHT22;32138;50.966;6.968;2022-11-18T00:53:37;11.90;95.50
46440;DHT22;32138;50.966;6.968;2022-11-18T00:54:38;11.90;95.50
46440;DHT22;32138;50.966;6.968;2022-11-18T00:55:39;11.80;95.60
46440;DHT22;32138;50.966;6.968;2022-11-18T00:56:40;11.70;95.60
46440;DHT22;32138;50.966;6.968;2022-11-18T00:57:41;11.80;95.80
46440;DHT22;32138;50.966;6.968;2022-11-18T00:58:42;11.90;95.70
46440;DHT22;32138;50.966;6.968;2022-11-18T00:59:43;11.90;95.60
46440;DHT22;32138;50.966;6.968;2022-11-18T01:00:45;11.80;95.60
46440;DHT22;32138;50.966;6.968;2022-11-18T01:01:48;11.90;95.60
46440;DHT22;32138;50.966;6.968;2022-11-18T01:02:49;11.80;95.50
46440;DHT22;32138;50.966;6.968;2022-11-18T01:03:50;11.80;95.60
46440;DHT22;32138;50.966;6.968;2022-11-18T01:04:51;12.00;95.50
46440;DHT22;32138;50.966;6.968;2022-11-18T01:05:52;11.90;95.70
46440;DHT22;32138;50.966;6.968;2022-11-18T01:06:53;11.90;95.40
46440;DHT22;32138;50.966;6.968;2022-11-18T01:07:53;12.00;95.60
46440;DHT22;32138;50.966;6.968;2022-11-18T01:08:54;12.00;95.70
46440;DHT22;32138;50.966;6.968;2022-11-18T01:09:55;12.00;95.60
46440;DHT22;32138;50.966;6.968;2022-11-18T01:10:57;12.00;95.50
46440;DHT22;32138;50.966;6.968;2022-11-18T01:12:18;12.00;95.70
46440;DHT22;32138;50.966;6.968;2022-11-18T01:13:37;12.10;96.00
46440;DHT22;32138;50.966;6.968;2022-11-18T01:14:37;12.10;96.10
46440;DHT22;32138;50.966;6.968;2022-11-18T01:15:39;12.10;95.70
46440;DHT22;32138;50.966;6.968;2022-11-18T01:16:41;12.10;95.90
46440;DHT22;32138;50.966;6.968;2022-11-18T01:17:42;12.00;95.60
46440;DHT22;32138;50.966;6.968;2022-11-18T01:18:42;12.00;95.80
46440;DHT22;32138;50.966;6.968;2022-11-18T01:19:43;12.00;95.50
46440;DHT22;32138;50.966;6.968;2022-11-18T01:20:45;12.00;95.70
46440;DHT22;32138;50.966;6.968;2022-11-18T01:21:46;12.00;95.60
46440;DHT22;32138;50.966;6.968;2022-11-18T01:22:47;12.10;95.60
46440;DHT22;32138;50.966;6.968;2022-11-18T01:23:48;12.10;95.60
46440;DHT22;32138;50.966;6.968;2022-11-18T01:24:48;12.10;95.60
46440;DHT22;32138;50.966;6.968;2022-11-18T01:25:49;12.10;95.40
46440;DHT22;32138;50.966;6.968;2022-11-18T01:26:50;12.10;95.60
46440;DHT22;32138;50.966;6.968;2022-11-18T01:27:51;12.20;95.80
46440;DHT22;32138;50.966;6.968;2022-11-18T01:28:55;12.10;95.50
46440;DHT22;32138;50.966;6.968;2022-11-18T01:29:59;12.10;95.60
46440;DHT22;32138;50.966;6.968;2022-11-18T01:31:07;12.10;95.90
46440;DHT22;32138;50.966;6.968;2022-11-18T01:32:18;12.20;95.60
46440;DHT22;32138;50.966;6.968;2022-11-18T01:33:19;12.10;96.00
46440;DHT22;32138;50.966;6.968;2022-11-18T01:34:19;12.10;96.00
46440;DHT22;32138;50.966;6.968;2022-11-18T01:35:20;12.00;95.10
46440;DHT22;32138;50.966;6.968;2022-11-18T01:36:26;12.00;95.40
46440;DHT22;32138;50.966;6.968;2022-11-18T01:37:27;12.00;95.50
46440;DHT22;32138;50.966;6.968;2022-11-18T01:38:28;12.00;96.00
46440;DHT22;32138;50.966;6.968;2022-11-18T01:39:29;11.90;95.60
46440;DHT22;32138;50.966;6.968;2022-11-18T01:40:32;11.90;95.60
46440;DHT22;32138;50.966;6.968;2022-11-18T01:41:33;11.90;95.70
46440;DHT22;32138;50.966;6.968;2022-11-18T01:42:34;12.00;95.90
46440;DHT22;32138;50.966;6.968;2022-11-18T01:43:59;12.00;96.00
46440;DHT22;32138;50.966;6.968;2022-11-18T01:46:39;12.00;95.60
46440;DHT22;32138;50.966;6.968;2022-11-18T01:47:56;12.10;95.70
46440;DHT22;32138;50.966;6.968;2022-11-18T01:49:07;12.10;95.70
46440;DHT22;32138;50.966;6.968;2022-11-18T01:50:11;12.00;95.60
46440;DHT22;32138;50.966;6.968;2022-11-18T01:51:15;12.00;95.80
46440;DHT22;32138;50.966;6.968;2022-11-18T01:52:17;12.00;95.80
46440;DHT22;32138;50.966;6.968;2022-11-18T01:53:22;12.00;95.70
46440;DHT22;32138;50.966;6.968;2022-11-18T01:54:35;12.00;95.70
46440;DHT22;32138;50.966;6.968;2022-11-18T01:55:41;12.10;95.60
46440;DHT22;32138;50.966;6.968;2022-11-18T01:56:46;12.00;95.60
46440;DHT22;32138;50.966;6.968;2022-11-18T01:57:51;12.00;95.60
46440;DHT22;32138;50.966;6.968;2022-11-18T01:59:08;12.00;95.60
46440;DHT22;32138;50.966;6.968;2022-11-18T02:00:12;12.00;95.40
46440;DHT22;32138;50.966;6.968;2022-11-18T02:01:13;12.10;95.70
46440;DHT22;32138;50.966;6.968;2022-11-18T02:02:14;12.10;95.50
46440;DHT22;32138;50.966;6.968;2022-11-18T02:03:16;12.00;95.80
46440;DHT22;32138;50.966;6.968;2022-11-18T02:04:17;12.10;95.60
46440;DHT22;32138;50.966;6.968;2022-11-18T02:05:18;12.10;95.50
46440;DHT22;32138;50.966;6.968;2022-11-18T02:06:19;12.10;95.60
46440;DHT22;32138;50.966;6.968;2022-11-18T02:07:21;12.10;95.50
46440;DHT22;32138;50.966;6.968;2022-11-18T02:08:22;12.10;95.50
46440;DHT22;32138;50.966;6.968;2022-11-18T02:09:23;12.10;95.60
46440;DHT22;32138;50.966;6.968;2022-11-18T02:10:23;12.10;95.80
46440;DHT22;32138;50.966;6.968;2022-11-18T02:11:24;12.10;95.60
46440;DHT22;32138;50.966;6.968;2022-11-18T02:12:44;12.00;95.60
46440;DHT22;32138;50.966;6.968;2022-11-18T02:13:45;12.00;95.70
46440;DHT22;32138;50.966;6.968;2022-11-18T02:14:47;12.00;95.80
46440;DHT22;32138;50.966;6.968;2022-11-18T02:16:14;11.90;95.60
46440;DHT22;32138;50.966;6.968;2022-11-18T02:19:00;11.90;95.60
46440;DHT22;32138;50.966;6.968;2022-11-18T02:24:55;11.80;96.00
46440;DHT22;32138;50.966;6.968;2022-11-18T02:29:37;11.90;95.90
46440;DHT22;32138;50.966;6.968;2022-11-18T02:31:05;11.90;95.90
46440;DHT22;32138;50.966;6.968;2022-11-18T02:32:24;11.80;95.90
46440;DHT22;32138;50.966;6.968;2022-11-18T02:33:38;11.90;96.10
46440;DHT22;32138;50.966;6.968;2022-11-18T02:34:54;11.80;96.00
46440;DHT22;32138;50.966;6.968;2022-11-18T02:36:12;11.80;96.00
46440;DHT22;32138;50.966;6.968;2022-11-18T02:37:58;11.90;96.10
46440;DHT22;32138;50.966;6.968;2022-11-18T02:39:09;12.00;96.00
46440;DHT22;32138;50.966;6.968;2022-11-18T02:40:43;12.00;96.20
46440;DHT22;32138;50.966;6.968;2022-11-18T02:41:45;12.00;96.20
46440;DHT22;32138;50.966;6.968;2022-11-18T02:42:54;11.80;96.00
46440;DHT22;32138;50.966;6.968;2022-11-18T02:44:08;11.90;96.10
46440;DHT22;32138;50.966;6.968;2022-11-18T02:45:14;11.90;95.90
46440;DHT22;32138;50.966;6.968;2022-11-18T02:46:23;11.70;95.90
46440;DHT22;32138;50.966;6.968;2022-11-18T02:47:27;11.70;96.00
46440;DHT22;32138;50.966;6.968;2022-11-18T02:48:32;11.70;95.80
46440;DHT22;32138;50.966;6.968;2022-11-18T02:49:42;11.70;96.00
46440;DHT22;32138;50.966;6.968;2022-11-18T02:50:47;11.70;96.10
46440;DHT22;32138;50.966;6.968;2022-11-18T02:51:49;11.80;95.90
46440;DHT22;32138;50.966;6.968;2022-11-18T02:52:55;11.80;96.10
46440;DHT22;32138;50.966;6.968;2022-11-18T02:54:04;11.80;96.00
46440;DHT22;32138;50.966;6.968;2022-11-18T02:55:08;11.90;95.90
46440;DHT22;32138;50.966;6.968;2022-11-18T02:56:11;11.90;95.90
46440;DHT22;32138;50.966;6.968;2022-11-18T02:57:14;11.90;96.00
46440;DHT22;32138;50.966;6.968;2022-11-18T02:58:18;11.90;95.80
46440;DHT22;32138;50.966;6.968;2022-11-18T02:59:20;11.90;95.90
46440;DHT22;32138;50.966;6.968;2022-11-18T03:00:21;12.00;96.00
46440;DHT22;32138;50.966;6.968;2022-11-18T03:01:25;12.00;96.10
46440;DHT22;32138;50.966;6.968;2022-11-18T03:02:44;11.90;95.90
46440;DHT22;32138;50.966;6.968;2022-11-18T03:03:47;11.90;95.90
46440;DHT22;32138;50.966;6.968;2022-11-18T03:04:50;11.90;96.10
46440;DHT22;32138;50.966;6.968;2022-11-18T03:06:05;11.80;95.90
46440;DHT22;32138;50.966;6.968;2022-11-18T03:07:18;11.80;95.90
46440;DHT22;32138;50.966;6.968;2022-11-18T03:08:27;11.90;96.40
46440;DHT22;32138;50.966;6.968;2022-11-18T03:09:36;11.80;96.10
46440;DHT22;32138;50.966;6.968;2022-11-18T03:10:45;11.80;96.00
46440;DHT22;32138;50.966;6.968;2022-11-18T03:13:29;11.80;96.40
46440;DHT22;32138;50.966;6.968;2022-11-18T03:16:24;11.80;95.80
46440;DHT22;32138;50.966;6.968;2022-11-18T03:17:48;11.90;95.90
46440;DHT22;32138;50.966;6.968;2022-11-18T03:21:30;11.80;96.00
46440;DHT22;32138;50.966;6.968;2022-11-18T03:22:36;11.90;96.10
46440;DHT22;32138;50.966;6.968;2022-11-18T03:23:54;12.00;96.20
46440;DHT22;32138;50.966;6.968;2022-11-18T03:25:04;12.00;96.10
46440;DHT22;32138;50.966;6.968;2022-11-18T03:26:21;11.90;95.80
46440;DHT22;32138;50.966;6.968;2022-11-18T03:27:59;11.90;95.80
46440;DHT22;32138;50.966;6.968;2022-11-18T03:29:18;11.90;95.90
46440;DHT22;32138;50.966;6.968;2022-11-18T03:30:22;11.80;96.00
46440;DHT22;32138;50.966;6.968;2022-11-18T03:31:35;11.90;96.50
46440;DHT22;32138;50.966;6.968;2022-11-18T03:32:42;11.90;96.10
46440;DHT22;32138;50.966;6.968;2022-11-18T03:33:53;11.80;95.90
46440;DHT22;32138;50.966;6.968;2022-11-18T03:35:10;11.80;95.90
46440;DHT22;32138;50.966;6.968;2022-11-18T03:36:15;11.80;95.70
46440;DHT22;32138;50.966;6.968;2022-11-18T03:37:20;11.90;96.00
46440;DHT22;32138;50.966;6.968;2022-11-18T03:38:28;11.80;96.00
46440;DHT22;32138;50.966;6.968;2022-11-18T03:39:33;11.80;95.90
46440;DHT22;32138;50.966;6.968;2022-11-18T03:40:40;11.90;95.90
46440;DHT22;32138;50.966;6.968;2022-11-18T03:41:52;11.90;95.90
46440;DHT22;32138;50.966;6.968;2022-11-18T03:43:14;11.90;95.90
46440;DHT22;32138;50.966;6.968;2022-11-18T03:44:23;11.70;95.70
46440;DHT22;32138;50.966;6.968;2022-11-18T03:45:48;11.60;96.00
46440;DHT22;32138;50.966;6.968;2022-11-18T03:47:05;11.80;96.10
46440;DHT22;32138;50.966;6.968;2022-11-18T03:48:18;11.90;96.20
46440;DHT22;32138;50.966;6.968;2022-11-18T03:49:26;11.80;95.90
46440;DHT22;32138;50.966;6.968;2022-11-18T03:50:30;11.70;96.00
46440;DHT22;32138;50.966;6.968;2022-11-18T03:51:40;11.60;96.10
46440;DHT22;32138;50.966;6.968;2022-11-18T03:52:43;11.60;96.30
46440;DHT22;32138;50.966;6.968;2022-11-18T03:54:11;11.60;96.30
46440;DHT22;32138;50.966;6.968;2022-11-18T03:55:35;11.60;96.30
46440;DHT22;32138;50.966;6.968;2022-11-18T03:56:43;11.70;96.40
46440;DHT22;32138;50.966;6.968;2022-11-18T03:59:36;11.90;96.10
46440;DHT22;32138;50.966;6.968;2022-11-18T04:00:43;11.80;96.30
46440;DHT22;32138;50.966;6.968;2022-11-18T04:01:54;11.80;96.40
46440;DHT22;32138;50.966;6.968;2022-11-18T04:02:57;11.90;96.30
46440;DHT22;32138;50.966;6.968;2022-11-18T04:03:58;11.90;96.20
46440;DHT22;32138;50.966;6.968;2022-11-18T04:05:00;11.90;96.20
46440;DHT22;32138;50.966;6.968;2022-11-18T04:06:11;11.90;96.20
46440;DHT22;32138;50.966;6.968;2022-11-18T04:07:51;11.80;96.20
46440;DHT22;32138;50.966;6.968;2022-11-18T04:08:59;11.70;95.90
46440;DHT22;32138;50.966;6.968;2022-11-18T04:10:17;11.70;96.00
46440;DHT22;32138;50.966;6.968;2022-11-18T04:11:27;11.80;96.00
46440;DHT22;32138;50.966;6.968;2022-11-18T04:13:23;11.80;96.10
46440;DHT22;32138;50.966;6.968;2022-11-18T04:14:25;11.80;96.00
46440;DHT22;32138;50.966;6.968;2022-11-18T04:15:26;11.70;96.10
46440;DHT22;32138;50.966;6.968;2022-11-18T04:16:29;11.80;96.10
46440;DHT22;32138;50.966;6.968;2022-11-18T04:17:30;11.80;96.40
46440;DHT22;32138;50.966;6.968;2022-11-18T04:18:31;11.70;96.10
46440;DHT22;32138;50.966;6.968;2022-11-18T04:19:31;11.80;96.30
46440;DHT22;32138;50.966;6.968;2022-11-18T04:20:32;11.80;96.50
46440;DHT22;32138;50.966;6.968;2022-11-18T04:21:33;11.80;96.10
46440;DHT22;32138;50.966;6.968;2022-11-18T04:22:34;11.80;96.10
46440;DHT22;32138;50.966;6.968;2022-11-18T04:23:34;11.80;96.20
46440;DHT22;32138;50.966;6.968;2022-11-18T04:24:35;11.80;96.10
46440;DHT22;32138;50.966;6.968;2022-11-18T04:25:36;11.90;96.00
46440;DHT22;32138;50.966;6.968;2022-11-18T04:26:37;11.90;95.90
46440;DHT22;32138;50.966;6.968;2022-11-18T04:27:38;11.90;95.90
46440;DHT22;32138;50.966;6.968;2022-11-18T04:28:39;11.80;95.90
46440;DHT22;32138;50.966;6.968;2022-11-18T04:29:39;11.90;96.00
46440;DHT22;32138;50.966;6.968;2022-11-18T04:30:40;11.80;95.90
46440;DHT22;32138;50.966;6.968;2022-11-18T04:31:41;11.70;96.10
46440;DHT22;32138;50.966;6.968;2022-11-18T04:32:41;11.80;96.40
46440;DHT22;32138;50.966;6.968;2022-11-18T04:33:42;11.70;96.10
46440;DHT22;32138;50.966;6.968;2022-11-18T04:34:43;11.70;96.20
46440;DHT22;32138;50.966;6.968;2022-11-18T04:35:46;11.80;96.20
46440;DHT22;32138;50.966;6.968;2022-11-18T04:36:47;11.80;96.20
46440;DHT22;32138;50.966;6.968;2022-11-18T04:37:47;11.80;96.10
46440;DHT22;32138;50.966;6.968;2022-11-18T04:38:48;11.70;96.40
46440;DHT22;32138;50.966;6.968;2022-11-18T04:39:49;11.80;96.40
46440;DHT22;32138;50.966;6.968;2022-11-18T04:40:49;11.80;96.30
46440;DHT22;32138;50.966;6.968;2022-11-18T04:41:50;11.90;96.30
46440;DHT22;32138;50.966;6.968;2022-11-18T04:42:57;11.80;96.20
46440;DHT22;32138;50.966;6.968;2022-11-18T04:43:58;11.80;96.30
46440;DHT22;32138;50.966;6.968;2022-11-18T04:44:58;11.90;96.30
46440;DHT22;32138;50.966;6.968;2022-11-18T04:45:59;11.90;96.20
46440;DHT22;32138;50.966;6.968;2022-11-18T04:47:03;11.80;96.00
46440;DHT22;32138;50.966;6.968;2022-11-18T04:48:05;11.80;96.10
46440;DHT22;32138;50.966;6.968;2022-11-18T04:49:07;11.80;96.20
46440;DHT22;32138;50.966;6.968;2022-11-18T04:50:08;11.90;96.10
46440;DHT22;32138;50.966;6.968;2022-11-18T04:51:09;11.90;96.00
46440;DHT22;32138;50.966;6.968;2022-11-18T04:52:10;11.90;96.10
46440;DHT22;32138;50.966;6.968;2022-11-18T04:53:10;11.80;96.00
46440;DHT22;32138;50.966;6.968;2022-11-18T04:54:12;11.80;96.00
46440;DHT22;32138;50.966;6.968;2022-11-18T04:55:13;11.80;96.20
46440;DHT22;32138;50.966;6.968;2022-11-18T04:56:13;11.70;96.30
46440;DHT22;32138;50.966;6.968;2022-11-18T04:57:14;11.80;96.40
46440;DHT22;32138;50.966;6.968;2022-11-18T04:58:15;11.80;96.20
46440;DHT22;32138;50.966;6.968;2022-11-18T04:59:21;11.80;96.20
46440;DHT22;32138;50.966;6.968;2022-11-18T05:00:23;11.80;96.20
46440;DHT22;32138;50.966;6.968;2022-11-18T05:01:23;11.90;96.20
46440;DHT22;32138;50.966;6.968;2022-11-18T05:02:24;12.00;96.20
46440;DHT22;32138;50.966;6.968;2022-11-18T05:03:25;12.10;96.20
46440;DHT22;32138;50.966;6.968;2022-11-18T05:04:28;12.10;96.00
46440;DHT22;32138;50.966;6.968;2022-11-18T05:05:30;11.90;96.00
46440;DHT22;32138;50.966;6.968;2022-11-18T05:06:34;11.80;96.10
46440;DHT22;32138;50.966;6.968;2022-11-18T05:07:34;11.70;96.20
46440;DHT22;32138;50.966;6.968;2022-11-18T05:08:35;11.70;96.40
46440;DHT22;32138;50.966;6.968;2022-11-18T05:09:36;11.70;96.40
46440;DHT22;32138;50.966;6.968;2022-11-18T05:10:37;11.80;96.40
46440;DHT22;32138;50.966;6.968;2022-11-18T05:11:38;11.80;96.30
46440;DHT22;32138;50.966;6.968;2022-11-18T05:12:58;11.80;96.40
46440;DHT22;32138;50.966;6.968;2022-11-18T05:13:58;11.90;96.40
46440;DHT22;32138;50.966;6.968;2022-11-18T05:14:59;11.90;96.50
46440;DHT22;32138;50.966;6.968;2022-11-18T05:16:00;11.90;96.20
46440;DHT22;32138;50.966;6.968;2022-11-18T05:17:03;11.90;96.00
46440;DHT22;32138;50.966;6.968;2022-11-18T05:18:04;12.00;95.90
46440;DHT22;32138;50.966;6.968;2022-11-18T05:19:06;12.00;95.90
46440;DHT22;32138;50.966;6.968;2022-11-18T05:20:07;12.10;96.10
46440;DHT22;32138;50.966;6.968;2022-11-18T05:21:09;12.00;96.10
46440;DHT22;32138;50.966;6.968;2022-11-18T05:22:10;12.00;96.20
46440;DHT22;32138;50.966;6.968;2022-11-18T05:23:10;12.00;96.10
46440;DHT22;32138;50.966;6.968;2022-11-18T05:24:11;12.00;96.60
46440;DHT22;32138;50.966;6.968;2022-11-18T05:25:12;11.90;96.80
46440;DHT22;32138;50.966;6.968;2022-11-18T05:26:13;12.00;96.50
46440;DHT22;32138;50.966;6.968;2022-11-18T05:27:14;12.00;96.30
46440;DHT22;32138;50.966;6.968;2022-11-18T05:28:15;12.00;96.30
46440;DHT22;32138;50.966;6.968;2022-11-18T05:29:17;12.00;96.10
46440;DHT22;32138;50.966;6.968;2022-11-18T05:30:18;12.00;96.10
46440;DHT22;32138;50.966;6.968;2022-11-18T05:31:22;11.90;96.10
46440;DHT22;32138;50.966;6.968;2022-11-18T05:32:23;12.00;96.10
46440;DHT22;32138;50.966;6.968;2022-11-18T05:33:24;11.90;96.10
46440;DHT22;32138;50.966;6.968;2022-11-18T05:34:24;11.90;96.20
46440;DHT22;32138;50.966;6.968;2022-11-18T05:35:25;11.80;96.20
46440;DHT22;32138;50.966;6.968;2022-11-18T05:36:26;11.90;96.20
46440;DHT22;32138;50.966;6.968;2022-11-18T05:37:26;11.90;96.20
46440;DHT22;32138;50.966;6.968;2022-11-18T05:38:27;12.00;96.00
46440;DHT22;32138;50.966;6.968;2022-11-18T05:39:28;11.90;96.10
46440;DHT22;32138;50.966;6.968;2022-11-18T05:40:29;11.90;96.20
46440;DHT22;32138;50.966;6.968;2022-11-18T05:41:30;11.90;96.40
46440;DHT22;32138;50.966;6.968;2022-11-18T05:42:49;11.90;96.40
46440;DHT22;32138;50.966;6.968;2022-11-18T05:44:08;11.90;96.10
46440;DHT22;32138;50.966;6.968;2022-11-18T05:45:09;11.90;96.20
46440;DHT22;32138;50.966;6.968;2022-11-18T05:46:10;11.90;96.10
46440;DHT22;32138;50.966;6.968;2022-11-18T05:47:10;11.90;96.10
46440;DHT22;32138;50.966;6.968;2022-11-18T05:48:11;11.90;96.20
46440;DHT22;32138;50.966;6.968;2022-11-18T05:49:12;12.00;96.10
46440;DHT22;32138;50.966;6.968;2022-11-18T05:50:12;12.00;96.30
46440;DHT22;32138;50.966;6.968;2022-11-18T05:51:13;12.00;96.20
46440;DHT22;32138;50.966;6.968;2022-11-18T05:52:14;12.00;96.50
46440;DHT22;32138;50.966;6.968;2022-11-18T05:53:16;12.00;96.60
46440;DHT22;32138;50.966;6.968;2022-11-18T05:54:18;12.00;96.40
46440;DHT22;32138;50.966;6.968;2022-11-18T05:55:22;12.00;96.10
46440;DHT22;32138;50.966;6.968;2022-11-18T05:56:32;12.00;96.40
46440;DHT22;32138;50.966;6.968;2022-11-18T05:57:36;12.00;96.40
46440;DHT22;32138;50.966;6.968;2022-11-18T05:58:37;12.00;96.30
46440;DHT22;32138;50.966;6.968;2022-11-18T05:59:37;12.00;96.10
46440;DHT22;32138;50.966;6.968;2022-11-18T06:00:38;11.90;96.00
46440;DHT22;32138;50.966;6.968;2022-11-18T06:02:59;11.80;96.10
46440;DHT22;32138;50.966;6.968;2022-11-18T06:04:01;11.80;96.20
46440;DHT22;32138;50.966;6.968;2022-11-18T06:05:07;11.80;96.30
46440;DHT22;32138;50.966;6.968;2022-11-18T06:06:09;11.90;96.00
46440;DHT22;32138;50.966;6.968;2022-11-18T06:07:33;11.90;96.00
46440;DHT22;32138;50.966;6.968;2022-11-18T06:08:41;12.00;95.90
46440;DHT22;32138;50.966;6.968;2022-11-18T06:09:49;11.90;96.00
46440;DHT22;32138;50.966;6.968;2022-11-18T06:10:52;11.80;96.00
46440;DHT22;32138;50.966;6.968;2022-11-18T06:11:56;11.80;96.10
46440;DHT22;32138;50.966;6.968;2022-11-18T06:13:01;11.70;96.10
46440;DHT22;32138;50.966;6.968;2022-11-18T06:14:16;11.70;96.30
46440;DHT22;32138;50.966;6.968;2022-11-18T06:15:24;11.70;96.30
46440;DHT22;32138;50.966;6.968;2022-11-18T06:16:28;11.70;96.30
46440;DHT22;32138;50.966;6.968;2022-11-18T06:17:40;11.70;96.40
46440;DHT22;32138;50.966;6.968;2022-11-18T06:18:43;11.80;96.20
46440;DHT22;32138;50.966;6.968;2022-11-18T06:19:44;11.90;96.20
46440;DHT22;32138;50.966;6.968;2022-11-18T06:20:46;12.00;96.10
46440;DHT22;32138;50.966;6.968;2022-11-18T06:21:47;12.00;95.90
46440;DHT22;32138;50.966;6.968;2022-11-18T06:22:50;12.00;96.00
46440;DHT22;32138;50.966;6.968;2022-11-18T06:23:53;12.10;96.10
46440;DHT22;32138;50.966;6.968;2022-11-18T06:24:54;12.00;96.10
46440;DHT22;32138;50.966;6.968;2022-11-18T06:25:55;12.00;96.10
46440;DHT22;32138;50.966;6.968;2022-11-18T06:26:57;12.10;96.20
46440;DHT22;32138;50.966;6.968;2022-11-18T06:28:00;12.10;96.30
46440;DHT22;32138;50.966;6.968;2022-11-18T06:29:02;12.20;96.00
46440;DHT22;32138;50.966;6.968;2022-11-18T06:30:03;12.20;95.90
46440;DHT22;32138;50.966;6.968;2022-11-18T06:31:04;12.20;95.90
46440;DHT22;32138;50.966;6.968;2022-11-18T06:32:05;12.20;95.90
46440;DHT22;32138;50.966;6.968;2022-11-18T06:33:06;12.20;96.30
46440;DHT22;32138;50.966;6.968;2022-11-18T06:34:07;12.20;96.10
46440;DHT22;32138;50.966;6.968;2022-11-18T06:35:08;12.20;96.00
46440;DHT22;32138;50.966;6.968;2022-11-18T06:36:09;12.20;96.10
46440;DHT22;32138;50.966;6.968;2022-11-18T06:37:18;12.20;96.30
46440;DHT22;32138;50.966;6.968;2022-11-18T06:38:25;12.10;96.40
46440;DHT22;32138;50.966;6.968;2022-11-18T06:39:25;12.00;96.30
46440;DHT22;32138;50.966;6.968;2022-11-18T06:40:26;12.00;96.30
46440;DHT22;32138;50.966;6.968;2022-11-18T06:41:27;12.00;96.20
46440;DHT22;32138;50.966;6.968;2022-11-18T06:42:28;12.00;96.40
46440;DHT22;32138;50.966;6.968;2022-11-18T06:43:47;12.10;96.30
46440;DHT22;32138;50.966;6.968;2022-11-18T06:44:48;12.10;96.20
46440;DHT22;32138;50.966;6.968;2022-11-18T06:45:49;12.00;96.10
46440;DHT22;32138;50.966;6.968;2022-11-18T06:47:09;12.00;96.20
46440;DHT22;32138;50.966;6.968;2022-11-18T06:48:10;12.00;96.40
46440;DHT22;32138;50.966;6.968;2022-11-18T06:49:11;12.10;96.70
46440;DHT22;32138;50.966;6.968;2022-11-18T06:50:12;12.00;96.40
46440;DHT22;32138;50.966;6.968;2022-11-18T06:51:13;12.00;96.30
46440;DHT22;32138;50.966;6.968;2022-11-18T06:52:14;12.00;96.20
46440;DHT22;32138;50.966;6.968;2022-11-18T06:53:14;12.00;96.20
46440;DHT22;32138;50.966;6.968;2022-11-18T06:54:15;12.00;96.30
46440;DHT22;32138;50.966;6.968;2022-11-18T06:55:16;11.90;96.20
46440;DHT22;32138;50.966;6.968;2022-11-18T06:56:19;11.90;96.20
46440;DHT22;32138;50.966;6.968;2022-11-18T06:57:20;12.00;96.60
46440;DHT22;32138;50.966;6.968;2022-11-18T06:58:21;12.10;96.40
46440;DHT22;32138;50.966;6.968;2022-11-18T06:59:22;12.10;96.40
46440;DHT22;32138;50.966;6.968;2022-11-18T07:00:23;12.10;96.30
46440;DHT22;32138;50.966;6.968;2022-11-18T07:01:26;12.00;96.40
46440;DHT22;32138;50.966;6.968;2022-11-18T07:02:29;12.00;96.50
46440;DHT22;32138;50.966;6.968;2022-11-18T07:03:29;12.00;96.50
46440;DHT22;32138;50.966;6.968;2022-11-18T07:04:30;12.10;96.40
46440;DHT22;32138;50.966;6.968;2022-11-18T07:05:32;12.00;96.50
46440;DHT22;32138;50.966;6.968;2022-11-18T07:06:35;12.00;96.50
46440;DHT22;32138;50.966;6.968;2022-11-18T07:07:36;12.10;96.40
46440;DHT22;32138;50.966;6.968;2022-11-18T07:08:38;12.10;96.80
46440;DHT22;32138;50.966;6.968;2022-11-18T07:09:40;12.10;96.60
46440;DHT22;32138;50.966;6.968;2022-11-18T07:10:40;12.10;96.90